Snook, Texas
Current Conditions -  °F | °C
As of 5:53 PM on Thursday 18 Dec 2014 (Local Time) from KCLL Reporting Station
Overcast Overcast  
Wind Chill: 59°   Ceiling: 1100
Heat Index: 59°   Visibility: 9mi
Dew Point: 55°   Wind: 7mph
Humidity: 87%   Direction: 20°NNE
Pressure: 30.07"   Gusts: NA
Location:  30.49°N, 96.46°W
Report Text: KCLL 182353Z 02006KT 9SM OVC011 15/13 A3007 RMK AO2 SLP182 T01500128 10167 20150 53004
Loading
Personal Weather Stations






























Interactive Weather Map New forecast layout! Learn more

10-Day Weather Forecast

Advertisements
Track Severe Weather on mobile